»·PEaware :: N3955 KBUR-KVCV

N3955 :: KBUR-KVCV

FLIGHT INFORMATION

Flight Status: Arrived
Operator: Privately registered:
United States
More flights under this callsign
Pilot: Ross W. (20449)
Aircraft: BRITISH AERO HAWK T45 GOSHAWK
(HAWK)
More flights by this aircraft type
Origin: KBUR Bob Hope-Burbank
United States
Destination: KVCV Socal Logistics
United States
More flights between these airports :: More routes between these airports
Route:
File this flight plan on PilotEdge
Remarks:
Altitude:
(Current/Filed)
11,500ft
Speed:
(Current/Filed)
300kts
Departed: 09-Oct-18 09:11 AM
Arrived: 09-Oct-18 09:35 AM
Distance/Time
Traveled:
54nm/0:24
Distance/Time
To Go:
Arrived

Flight Plot

Page will automatically refresh every two minutes.

Flight plan parsing failed; only flown route is shown


Map Options




Map Legend


Flown Route
Filed Route
Departure Airport
Arrival Airport
Navaid (VOR, NDB)
Fix

Horizontal Profiles

Position Reports

Time Latitude Longitude Heading Altitude Ground
Speed
09-Oct-18 08:51 34.200202 -118.358746 263 722ft 0kts
09-Oct-18 08:52 34.200202 -118.358746 263 722ft 0kts
09-Oct-18 08:53 34.200202 -118.358747 263 722ft 0kts
09-Oct-18 08:54 34.200202 -118.358747 263 722ft 0kts
09-Oct-18 08:55 34.200202 -118.358747 263 722ft 0kts
09-Oct-18 08:56 34.200202 -118.358747 263 722ft 0kts
09-Oct-18 08:57 34.200202 -118.358747 263 722ft 0kts
09-Oct-18 08:58 34.200202 -118.358747 263 722ft 0kts
09-Oct-18 08:59 34.200202 -118.358747 263 722ft 0kts
09-Oct-18 09:00 34.200202 -118.358747 263 722ft 0kts
09-Oct-18 09:01 34.200202 -118.358747 263 722ft 0kts
09-Oct-18 09:02 34.200202 -118.358747 263 722ft 0kts
09-Oct-18 09:03 34.200202 -118.358747 263 722ft 0kts
09-Oct-18 09:04 34.200202 -118.358747 263 722ft 0kts
09-Oct-18 09:05 34.200202 -118.358747 263 722ft 0kts
09-Oct-18 09:06 34.200202 -118.358747 263 722ft 0kts
09-Oct-18 09:07 34.200262 -118.358715 55 722ft 4kts
09-Oct-18 09:08 34.205536 -118.359728 347 741ft 29kts
09-Oct-18 09:09 34.211335 -118.361315 351 768ft 10kts
09-Oct-18 09:10 34.211631 -118.361224 33 768ft 0kts
09-Oct-18 09:11 34.211631 -118.361224 33 768ft 0kts
09-Oct-18 09:12 34.211705 -118.360285 168 767ft 0kts
09-Oct-18 09:13 34.185582 -118.352871 149 1418ft 164kts
09-Oct-18 09:14 34.157909 -118.301599 123 3423ft 210kts
09-Oct-18 09:15 34.121850 -118.240102 124 3933ft 216kts
09-Oct-18 09:16 34.088829 -118.183428 124 3941ft 198kts
09-Oct-18 09:17 34.060423 -118.129662 121 3941ft 183kts
09-Oct-18 09:18 34.067889 -118.082992 45 5084ft 165kts
09-Oct-18 09:19 34.097857 -118.041113 53 6938ft 181kts
09-Oct-18 09:20 34.131869 -117.994231 47 10157ft 190kts
09-Oct-18 09:21 34.168589 -117.944921 45 11324ft 202kts
09-Oct-18 09:22 34.207816 -117.898260 40 11431ft 196kts
09-Oct-18 09:23 34.249196 -117.855873 36 11470ft 196kts
09-Oct-18 09:24 34.287551 -117.808709 46 11471ft 200kts
09-Oct-18 09:25 34.325190 -117.757086 46 11472ft 212kts
09-Oct-18 09:26 34.363220 -117.704842 46 11294ft 203kts
09-Oct-18 09:27 34.408410 -117.658957 31 10292ft 214kts
09-Oct-18 09:28 34.447479 -117.607430 50 8947ft 193kts
09-Oct-18 09:29 34.485004 -117.561778 37 7197ft 189kts
09-Oct-18 09:30 34.527749 -117.510397 62 5197ft 186kts
09-Oct-18 09:31 34.551663 -117.471869 34 4275ft 158kts
09-Oct-18 09:32 34.577288 -117.429269 59 3815ft 163kts
09-Oct-18 09:33 34.577995 -117.385209 129 4249ft 165kts
09-Oct-18 09:34 34.595849 -117.340657 40 4676ft 195kts
09-Oct-18 09:35 34.629903 -117.327812 264 4096ft 158kts
09-Oct-18 09:36 34.602061 -117.364789 222 2903ft 135kts
09-Oct-18 09:37 34.590159 -117.378208 138 2869ft 7kts
09-Oct-18 09:38 34.589858 -117.377840 134 2869ft 0kts
09-Oct-18 09:39 34.589275 -117.377042 129 2871ft 15kts
09-Oct-18 09:40 34.587920 -117.375509 317 2871ft 0kts
09-Oct-18 09:41 34.587919 -117.375509 317 2871ft 0kts
09-Oct-18 09:42 34.587919 -117.375509 317 2871ft 0kts
09-Oct-18 09:43 34.587919 -117.375509 317 2871ft 0kts
09-Oct-18 09:44 34.587919 -117.375509 317 2871ft 0kts
09-Oct-18 09:45 34.587919 -117.375509 317 2871ft 0kts
09-Oct-18 09:46 34.587919 -117.375509 317 2871ft 0kts

Navigation Log

Ident Type
Flight plan parsing failed, navigation log unavailable